Time;durP1;ratioP1;P1;durP2;ratioP2;P2;SDS_P1;SDS_P2;PMS_P1;PMS_P2;Temp;Humidity;BMP_temperature;BMP_pressure;BME280_temperature;BME280_humidity;BME280_pressure;Samples;Min_cycle;Max_cycle;Signal;HPM_P1;HPM_P2
2020/12/19 00:02:06;;;;;;;20.52;13.13;;;;;;;5.93;100.00;101283.06;5040086;28;20476;-86
2020/12/19 00:04:33;;;;;;;18.40;11.95;;;;;;;5.92;100.00;101276.00;5006854;28;20108;-86
2020/12/19 00:06:58;;;;;;;18.70;11.85;;;;;;;5.89;100.00;101270.91;5035202;28;20040;-85
2020/12/19 00:09:23;;;;;;;18.98;13.35;;;;;;;5.87;100.00;101264.88;5012231;28;20052;-86
2020/12/19 00:11:51;;;;;;;20.65;14.10;;;;;;;5.84;100.00;101260.63;5009549;28;20071;-85
2020/12/19 00:14:18;;;;;;;18.40;12.73;;;;;;;5.83;100.00;101266.06;5043003;28;20051;-85
2020/12/19 00:16:43;;;;;;;18.92;12.60;;;;;;;5.82;100.00;101259.06;5044427;28;20037;-85
2020/12/19 00:19:08;;;;;;;17.05;12.45;;;;;;;5.83;100.00;101260.75;5047839;28;20506;-84
2020/12/19 00:21:35;;;;;;;19.73;13.18;;;;;;;5.79;100.00;101256.66;5046322;28;20047;-85
2020/12/19 00:24:03;;;;;;;16.30;12.05;;;;;;;5.74;100.00;101254.34;5057086;28;20044;-86
2020/12/19 00:26:39;;;;;;;17.98;12.93;;;;;;;5.76;100.00;101246.25;5025616;28;20037;-84
2020/12/19 00:29:09;;;;;;;18.13;12.30;;;;;;;5.75;100.00;101239.19;5032682;28;20026;-85
2020/12/19 00:31:35;;;;;;;16.85;12.60;;;;;;;5.77;100.00;101239.94;5023933;28;20410;-85
2020/12/19 00:34:00;;;;;;;16.75;12.20;;;;;;;5.77;100.00;101231.94;5027038;28;20025;-85
2020/12/19 00:36:27;;;;;;;17.60;12.73;;;;;;;5.80;100.00;101232.53;5044472;28;20055;-85
2020/12/19 00:38:53;;;;;;;17.95;12.25;;;;;;;5.77;100.00;101231.94;5039998;28;20053;-85
2020/12/19 00:41:24;;;;;;;19.40;12.80;;;;;;;5.77;100.00;101231.94;5052090;28;20033;-85
2020/12/19 00:43:50;;;;;;;16.95;12.50;;;;;;;5.74;100.00;101232.19;5046338;28;20129;-86
2020/12/19 00:46:17;;;;;;;17.83;12.02;;;;;;;5.72;100.00;101226.13;5023834;28;20540;-85
2020/12/19 00:48:43;;;;;;;17.95;12.82;;;;;;;5.73;100.00;101222.53;5022089;28;20045;-85
2020/12/19 00:51:13;;;;;;;20.65;12.50;;;;;;;5.74;100.00;101224.19;5045210;28;20045;-85
2020/12/19 00:53:43;;;;;;;21.42;12.75;;;;;;;5.72;100.00;101216.31;5042773;28;20044;-84
2020/12/19 00:56:23;;;;;;;19.33;12.60;;;;;;;5.72;100.00;101212.81;5033546;28;20041;-85
2020/12/19 00:58:50;;;;;;;18.88;12.98;;;;;;;5.71;100.00;101209.31;5016073;28;20048;-84
2020/12/19 01:01:18;;;;;;;21.55;16.25;;;;;;;5.72;100.00;101210.16;5052931;28;20491;-84
2020/12/19 01:03:44;;;;;;;21.40;12.52;;;;;;;5.69;100.00;101202.41;5051261;28;20111;-85
2020/12/19 01:06:14;;;;;;;20.15;13.82;;;;;;;5.71;100.00;101203.13;5052023;28;20037;-84
2020/12/19 01:08:39;;;;;;;18.40;13.80;;;;;;;5.72;100.00;101208.34;5045947;28;20560;-85
2020/12/19 01:11:05;;;;;;;20.55;14.43;;;;;;;5.71;100.00;101205.81;5046511;28;20124;-85
2020/12/19 01:13:30;;;;;;;19.30;13.38;;;;;;;5.69;100.00;101199.75;5033784;28;20041;-85
2020/12/19 01:15:56;;;;;;;18.73;13.38;;;;;;;5.66;100.00;101200.84;5012793;28;20101;-85
2020/12/19 01:18:21;;;;;;;20.05;14.32;;;;;;;5.66;100.00;101192.84;5021502;28;20381;-85
2020/12/19 01:20:47;;;;;;;21.05;15.20;;;;;;;5.65;100.00;101189.34;5014974;28;20605;-85
2020/12/19 01:23:12;;;;;;;22.20;14.43;;;;;;;5.62;100.00;101192.25;5031770;28;20060;-85
2020/12/19 01:25:38;;;;;;;19.30;14.68;;;;;;;5.60;100.00;101191.53;5029328;28;20044;-85
2020/12/19 01:28:04;;;;;;;23.15;15.43;;;;;;;5.61;100.00;101195.91;5046232;28;20057;-84
2020/12/19 01:30:29;;;;;;;20.58;14.65;;;;;;;5.58;100.00;101187.28;5031711;28;20041;-84
2020/12/19 01:32:56;;;;;;;20.70;15.38;;;;;;;5.60;100.00;101193.34;5050798;28;20130;-85
2020/12/19 01:35:22;;;;;;;24.83;16.23;;;;;;;5.55;100.00;101191.06;5016705;28;20033;-85
2020/12/19 01:37:47;;;;;;;23.10;16.40;;;;;;;5.55;100.00;101188.41;5029610;28;20396;-85
2020/12/19 01:40:13;;;;;;;24.13;17.08;;;;;;;5.53;100.00;101193.00;5019678;28;20068;-84
2020/12/19 01:42:38;;;;;;;25.00;16.27;;;;;;;5.52;100.00;101191.28;5016498;28;20044;-84
2020/12/19 01:45:04;;;;;;;26.77;16.48;;;;;;;5.49;100.00;101180.88;5047726;28;20553;-85
2020/12/19 01:47:32;;;;;;;24.90;15.48;;;;;;;5.51;100.00;101180.75;5049336;28;20075;-84
2020/12/19 01:50:01;;;;;;;25.42;16.58;;;;;;;5.51;100.00;101181.59;5031427;28;20040;-85
2020/12/19 01:52:29;;;;;;;22.48;15.65;;;;;;;5.51;100.00;101178.09;5022042;28;20052;-84
2020/12/19 01:54:57;;;;;;;23.30;15.98;;;;;;;5.55;100.00;101180.41;5038629;28;20045;-86
2020/12/19 01:57:26;;;;;;;22.92;15.57;;;;;;;5.59;100.00;101168.53;5036850;28;20073;-85
2020/12/19 01:59:53;;;;;;;23.40;15.35;;;;;;;5.57;100.00;101175.78;5039114;28;20523;-85
2020/12/19 02:02:23;;;;;;;21.52;16.08;;;;;;;5.58;100.00;101171.31;5044713;28;20033;-85
2020/12/19 02:04:49;;;;;;;21.58;15.38;;;;;;;5.61;100.00;101165.75;5051270;28;20037;-85
2020/12/19 02:07:15;;;;;;;21.65;15.45;;;;;;;5.60;100.00;101162.22;5050479;28;20055;-85
2020/12/19 02:09:41;;;;;;;23.02;15.43;;;;;;;5.68;100.00;101148.31;5047000;28;20492;-85
2020/12/19 02:12:09;;;;;;;20.48;15.30;;;;;;;5.71;100.00;101149.88;5032303;28;20045;-85
2020/12/19 02:14:34;;;;;;;21.80;14.95;;;;;;;5.71;100.00;101147.22;5050785;28;20300;-84
2020/12/19 02:17:03;;;;;;;22.65;15.15;;;;;;;5.74;100.00;101149.63;5041903;28;20037;-85
2020/12/19 02:19:29;;;;;;;21.88;14.95;;;;;;;5.77;100.00;101146.72;5049814;28;20045;-85
2020/12/19 02:21:55;;;;;;;20.05;15.05;;;;;;;5.75;100.00;101156.66;5029372;28;20658;-85
2020/12/19 02:24:21;;;;;;;21.75;14.40;;;;;;;5.74;100.00;101147.81;5046670;28;20041;-85
2020/12/19 02:26:48;;;;;;;22.60;14.90;;;;;;;5.77;100.00;101142.25;5024028;28;20116;-85
2020/12/19 02:29:14;;;;;;;19.98;14.48;;;;;;;5.80;100.00;101141.97;5043583;28;20047;-85
2020/12/19 02:31:40;;;;;;;20.27;14.05;;;;;;;5.80;100.00;101139.31;5041663;28;20037;-85
2020/12/19 02:34:05;;;;;;;19.45;13.82;;;;;;;5.81;100.00;101143.69;5047537;28;20040;-85
2020/12/19 02:36:31;;;;;;;18.27;13.23;;;;;;;5.83;100.00;101133.75;5051879;28;20124;-84
2020/12/19 02:38:56;;;;;;;21.63;14.55;;;;;;;5.81;100.00;101134.84;5069966;28;20041;-84
2020/12/19 02:41:21;;;;;;;19.38;14.20;;;;;;;5.81;100.00;101137.50;5035235;28;20432;-85
2020/12/19 02:43:52;;;;;;;20.48;14.60;;;;;;;5.84;100.00;101142.56;5030597;28;20047;-86
2020/12/19 02:46:17;;;;;;;20.10;13.90;;;;;;;5.84;100.00;101139.91;5047919;28;20553;-85
2020/12/19 02:48:43;;;;;;;20.88;14.65;;;;;;;5.83;100.00;101131.06;5029809;28;20057;-85
2020/12/19 02:51:08;;;;;;;22.50;15.13;;;;;;;5.79;100.00;101126.16;5029172;28;20041;-85
2020/12/19 02:53:33;;;;;;;21.20;14.57;;;;;;;5.82;100.00;101126.75;5021229;28;20060;-85
2020/12/19 02:56:00;;;;;;;20.98;15.55;;;;;;;5.81;100.00;101122.38;5031400;28;20057;-84
2020/12/19 02:58:26;;;;;;;20.60;14.10;;;;;;;5.79;100.00;101121.66;5013804;28;20543;-85
2020/12/19 03:00:51;;;;;;;19.00;14.45;;;;;;;5.82;100.00;101121.41;5008719;28;20052;-85
2020/12/19 03:03:16;;;;;;;20.85;15.15;;;;;;;5.79;100.00;101120.81;5027577;28;20046;-85
2020/12/19 03:05:42;;;;;;;23.83;15.35;;;;;;;5.75;100.00;101116.69;5028368;28;20996;-84
2020/12/19 03:08:07;;;;;;;20.73;15.15;;;;;;;5.78;100.00;101121.78;5037102;28;20412;-85
2020/12/19 03:10:33;;;;;;;24.08;15.75;;;;;;;5.77;100.00;101117.44;5015049;28;20038;-85
2020/12/19 03:12:58;;;;;;;21.13;15.05;;;;;;;5.78;100.00;101119.97;5032142;28;20053;-85
2020/12/19 03:15:23;;;;;;;23.13;15.48;;;;;;;5.77;100.00;101118.25;5052198;28;20025;-85
2020/12/19 03:17:49;;;;;;;20.88;14.60;;;;;;;5.75;100.00;101116.69;5035091;28;20049;-85
2020/12/19 03:20:14;;;;;;;21.88;15.73;;;;;;;5.80;100.00;101119.84;5008790;28;20037;-85
2020/12/19 03:22:40;;;;;;;19.80;14.35;;;;;;;5.79;100.00;101112.84;5028930;28;20037;-85
2020/12/19 03:25:05;;;;;;;23.67;15.27;;;;;;;5.75;100.00;101108.72;5032452;28;20045;-85
2020/12/19 03:27:30;;;;;;;23.65;15.07;;;;;;;5.80;100.00;101101.19;5012370;28;20060;-86
2020/12/19 03:29:56;;;;;;;22.00;15.07;;;;;;;5.80;100.00;101115.34;5026016;28;20037;-85
2020/12/19 03:32:21;;;;;;;24.90;15.88;;;;;;;5.78;100.00;101108.44;5021552;28;20061;-86
2020/12/19 03:34:48;;;;;;;20.00;15.23;;;;;;;5.77;100.00;101117.44;5032209;28;20049;-85
2020/12/19 03:37:13;;;;;;;20.65;15.00;;;;;;;5.75;100.00;101106.03;5017778;28;20048;-84
2020/12/19 03:39:39;;;;;;;22.73;15.30;;;;;;;5.67;100.00;101106.69;5007927;28;20128;-84
2020/12/19 03:42:04;;;;;;;22.60;15.88;;;;;;;5.65;100.00;101104.13;5025687;28;20061;-84
2020/12/19 03:44:30;;;;;;;22.52;15.45;;;;;;;5.64;100.00;101106.94;5006641;28;20119;-84
2020/12/19 03:46:55;;;;;;;25.75;15.93;;;;;;;5.62;100.00;101099.06;5024303;28;20514;-84
2020/12/19 03:49:21;;;;;;;27.25;16.98;;;;;;;5.64;100.00;101097.13;5013128;28;20557;-84
2020/12/19 03:51:46;;;;;;;25.05;17.08;;;;;;;5.65;100.00;101096.16;5020184;28;20049;-84
2020/12/19 03:54:12;;;;;;;23.08;15.77;;;;;;;5.66;100.00;101097.00;5007363;28;20095;-84
2020/12/19 03:56:37;;;;;;;23.75;16.45;;;;;;;5.67;100.00;101098.72;4998818;28;20041;-85
2020/12/19 03:59:02;;;;;;;26.67;16.23;;;;;;;5.69;100.00;101093.22;5011285;28;20057;-84
2020/12/19 04:01:28;;;;;;;22.80;15.27;;;;;;;5.72;100.00;101085.00;5048789;28;20055;-84
2020/12/19 04:03:53;;;;;;;21.77;15.27;;;;;;;5.76;100.00;101089.13;4994148;28;20038;-85
2020/12/19 04:06:33;;;;;;;21.40;14.57;;;;;;;5.72;100.00;101088.50;5041784;28;20034;-84
2020/12/19 04:09:01;;;;;;;22.50;16.63;;;;;;;5.74;100.00;101080.41;5035249;28;20045;-86
2020/12/19 04:11:26;;;;;;;25.65;17.33;;;;;;;5.73;100.00;101086.72;4989795;28;20104;-85
2020/12/19 04:13:52;;;;;;;22.58;14.85;;;;;;;5.71;100.00;101078.00;5022216;28;20052;-85
2020/12/19 04:16:17;;;;;;;24.73;16.67;;;;;;;5.70;100.00;101073.63;5036578;28;20056;-84
2020/12/19 04:18:42;;;;;;;25.35;16.58;;;;;;;5.72;100.00;101069.03;5011811;28;20067;-84
2020/12/19 04:21:08;;;;;;;23.63;16.02;;;;;;;5.66;100.00;101067.69;5023726;28;20049;-84
2020/12/19 04:23:34;;;;;;;23.70;15.57;;;;;;;5.63;100.00;101073.28;5029919;28;20053;-85
2020/12/19 04:26:00;;;;;;;23.13;16.23;;;;;;;5.62;100.00;101071.59;4998452;28;20069;-84
2020/12/19 04:28:27;;;;;;;25.02;16.65;;;;;;;5.61;100.00;101064.56;5032987;28;20037;-84
2020/12/19 04:30:52;;;;;;;25.15;17.35;;;;;;;5.60;100.00;101058.41;5016022;28;20857;-85
2020/12/19 04:33:18;;;;;;;24.70;17.75;;;;;;;5.61;100.00;101060.13;5018208;28;20045;-84
2020/12/19 04:35:44;;;;;;;23.02;16.00;;;;;;;5.60;100.00;101057.56;5024065;28;20071;-85
2020/12/19 04:38:09;;;;;;;24.88;16.92;;;;;;;5.61;100.00;101060.13;5025597;28;20110;-85
2020/12/19 04:40:35;;;;;;;23.77;16.83;;;;;;;5.60;100.00;101042.44;5047287;28;20048;-85
2020/12/19 04:43:13;;;;;;;26.50;15.45;;;;;;;5.63;100.00;101050.16;5049760;28;20048;-85
2020/12/19 04:45:39;;;;;;;23.52;16.42;;;;;;;5.65;100.00;101045.56;5053910;28;20482;-84
2020/12/19 04:48:06;;;;;;;24.80;17.10;;;;;;;5.69;100.00;101045.31;5060976;28;20563;-86
2020/12/19 04:50:31;;;;;;;23.10;16.15;;;;;;;5.68;100.00;101046.28;5073941;28;20037;-85
2020/12/19 04:52:57;;;;;;;24.17;16.65;;;;;;;5.66;100.00;101047.25;5039354;28;20403;-84
2020/12/19 04:55:23;;;;;;;24.40;16.77;;;;;;;5.65;100.00;101042.91;5021008;28;20049;-85
2020/12/19 04:57:50;;;;;;;23.27;16.73;;;;;;;5.69;100.00;101048.81;5038673;28;20044;-85
2020/12/19 05:00:15;;;;;;;23.73;15.63;;;;;;;5.71;100.00;101043.38;5032264;28;20045;-85
2020/12/19 05:02:40;;;;;;;24.08;16.58;;;;;;;5.66;100.00;101041.06;5055751;28;20406;-85
2020/12/19 05:05:06;;;;;;;26.17;16.20;;;;;;;5.66;100.00;101041.91;5022069;28;20083;-85
2020/12/19 05:07:32;;;;;;;25.98;17.27;;;;;;;5.63;100.00;101036.84;5044784;22;20054;-89
2020/12/19 05:09:58;;;;;;;25.00;16.85;;;;;;;5.61;100.00;101033.50;5030404;28;20037;-88
2020/12/19 05:12:26;;;;;;;24.63;17.48;;;;;;;5.63;100.00;101034.19;5027526;28;20052;-84
2020/12/19 05:14:51;;;;;;;23.40;17.60;;;;;;;5.65;100.00;101034.91;5018901;28;20038;-84
2020/12/19 05:17:18;;;;;;;27.58;17.65;;;;;;;5.63;100.00;101030.69;5011136;28;20047;-86
2020/12/19 05:19:44;;;;;;;28.13;17.92;;;;;;;5.64;100.00;101033.22;5026431;28;20405;-86
2020/12/19 05:22:16;;;;;;;27.27;17.92;;;;;;;5.62;100.00;101032.50;4997896;28;20041;-86
2020/12/19 05:24:48;;;;;;;26.75;17.85;;;;;;;5.58;100.00;101024.88;5022144;28;20038;-87
2020/12/19 05:27:15;;;;;;;27.05;17.48;;;;;;;5.57;100.00;101026.72;5027789;28;20131;-86
2020/12/19 05:29:41;;;;;;;26.60;17.42;;;;;;;5.56;100.00;101024.19;5028430;28;20068;-85
2020/12/19 05:32:07;;;;;;;24.45;17.10;;;;;;;5.53;100.00;101030.59;5017869;28;20382;-86
2020/12/19 05:34:33;;;;;;;23.88;17.50;;;;;;;5.53;100.00;101017.28;5021384;28;20827;-85
2020/12/19 05:36:58;;;;;;;28.52;17.77;;;;;;;5.55;100.00;101022.47;5000473;28;20042;-85
2020/12/19 05:39:24;;;;;;;26.05;18.77;;;;;;;5.53;100.00;101022.63;5034414;28;20052;-86
2020/12/19 05:41:50;;;;;;;24.80;18.02;;;;;;;5.55;100.00;101023.34;5037806;28;20044;-85
2020/12/19 05:44:20;;;;;;;24.92;17.90;;;;;;;5.57;100.00;101015.22;5037418;28;20038;-85
2020/12/19 05:46:47;;;;;;;25.75;17.20;;;;;;;5.55;100.00;101018.03;5036373;28;20536;-83
2020/12/19 05:49:16;;;;;;;27.65;18.95;;;;;;;5.56;100.00;101019.69;5035244;28;20040;-86
2020/12/19 05:51:43;;;;;;;25.47;17.37;;;;;;;5.54;100.00;101013.66;5035172;28;20085;-86
2020/12/19 05:54:15;;;;;;;25.20;16.95;;;;;;;5.52;100.00;101012.91;5031731;28;20284;-84
2020/12/19 05:56:46;;;;;;;25.23;18.02;;;;;;;5.54;100.00;101010.16;5032666;28;20038;-86
2020/12/19 05:59:16;;;;;;;26.60;18.40;;;;;;;5.55;100.00;101017.16;5011840;28;20037;-86
2020/12/19 06:01:44;;;;;;;27.02;19.20;;;;;;;5.55;100.00;101018.03;5034624;28;20054;-85
2020/12/19 06:04:13;;;;;;;27.27;18.13;;;;;;;5.50;100.00;101019.38;5013513;28;20041;-84
2020/12/19 06:06:41;;;;;;;28.60;19.38;;;;;;;5.49;100.00;101010.50;5027634;28;20112;-85
2020/12/19 06:09:14;;;;;;;27.73;18.98;;;;;;;5.45;100.00;101014.41;5019636;28;20038;-86
2020/12/19 06:11:52;;;;;;;25.15;18.73;;;;;;;5.47;100.00;101009.81;5023715;28;20411;-84
2020/12/19 06:14:23;;;;;;;26.88;18.60;;;;;;;5.43;100.00;101016.34;5034174;28;20045;-84
2020/12/19 06:16:52;;;;;;;25.55;18.45;;;;;;;5.43;100.00;101005.69;5029522;28;20030;-84
2020/12/19 06:19:24;;;;;;;30.20;19.08;;;;;;;5.42;100.00;101001.34;5037964;28;20033;-86
2020/12/19 06:21:52;;;;;;;28.40;19.60;;;;;;;5.39;100.00;100996.28;5053777;28;20069;-86
2020/12/19 06:24:40;;;;;;;27.37;19.73;;;;;;;5.35;100.00;100992.16;5002935;28;20107;-85
2020/12/19 06:27:24;;;;;;;29.85;20.67;;;;;;;5.30;100.00;100986.41;5019669;28;20052;-83
2020/12/19 06:29:51;;;;;;;30.52;19.38;;;;;;;5.26;100.00;100990.25;5020329;28;20054;-85
2020/12/19 06:32:27;;;;;;;29.50;20.92;;;;;;;5.24;100.00;100986.91;5035828;28;20133;-86
2020/12/19 06:35:01;;;;;;;29.38;20.60;;;;;;;5.25;100.00;100988.59;5000050;28;20056;-85
2020/12/19 06:37:28;;;;;;;30.38;20.83;;;;;;;5.23;100.00;100983.38;5028130;28;20092;-84
2020/12/19 06:40:15;;;;;;;31.42;20.58;;;;;;;5.24;100.00;100984.25;5012975;28;20041;-86
2020/12/19 06:42:42;;;;;;;29.58;21.23;;;;;;;5.22;100.00;100983.50;5027295;28;20059;-84
2020/12/19 06:45:28;;;;;;;32.08;20.20;;;;;;;5.20;100.00;100979.16;5013570;28;20033;-84
2020/12/19 06:47:54;;;;;;;32.45;21.83;;;;;;;5.16;100.00;100983.03;5051736;28;20049;-83
2020/12/19 06:50:21;;;;;;;32.60;21.42;;;;;;;5.17;100.00;100971.41;5026618;28;20057;-85
2020/12/19 06:52:53;;;;;;;34.58;21.60;;;;;;;5.19;100.00;100981.94;5014675;28;20049;-85
2020/12/19 06:55:20;;;;;;;29.70;21.45;;;;;;;5.19;100.00;100980.13;5032764;28;20095;-83
2020/12/19 06:57:52;;;;;;;31.65;21.67;;;;;;;5.18;100.00;100980.28;5032142;28;20041;-83
2020/12/19 07:00:31;;;;;;;31.35;21.88;;;;;;;5.16;100.00;100987.53;5017219;28;20508;-85
2020/12/19 07:03:00;;;;;;;31.67;22.35;;;;;;;5.19;100.00;100988.09;5011714;28;20052;-84
2020/12/19 07:05:27;;;;;;;32.95;22.45;;;;;;;5.20;100.00;100980.97;5010980;28;20075;-85
2020/12/19 07:07:54;;;;;;;29.02;20.25;;;;;;;5.19;100.00;100979.28;5047743;28;20191;-84
2020/12/19 07:10:33;;;;;;;35.17;23.65;;;;;;;5.18;100.00;100978.44;5018297;28;20045;-86
2020/12/19 07:12:58;;;;;;;;;;;;;;;5.19;100.00;100976.63;5024600;28;20490;-85
2020/12/19 07:15:47;;;;;;;33.50;22.38;;;;;;;5.11;100.00;100977.22;5029856;28;19921;-86
2020/12/19 07:18:34;;;;;;;33.65;21.58;;;;;;;5.11;100.00;100982.56;5020480;28;20096;-85
2020/12/19 07:21:08;;;;;;;33.20;21.55;;;;;;;5.09;100.00;100973.88;5007674;28;20056;-86
2020/12/19 07:23:35;;;;;;;36.28;22.05;;;;;;;5.11;100.00;100973.75;5025239;28;20045;-85
2020/12/19 07:26:02;;;;;;;29.95;20.45;;;;;;;5.10;100.00;100980.88;5025850;28;20129;-87
2020/12/19 07:28:28;;;;;;;33.00;21.65;;;;;;;5.14;100.00;100982.31;5019123;28;20109;-87
2020/12/19 07:30:53;;;;;;;30.83;21.25;;;;;;;5.18;100.00;100981.09;5026879;28;20106;-87
2020/12/19 07:33:19;;;;;;;34.42;21.88;;;;;;;5.15;100.00;100988.47;5033736;28;20042;-86
2020/12/19 07:35:45;;;;;;;32.30;22.05;;;;;;;5.14;100.00;100989.44;5036115;28;20037;-84
2020/12/19 07:38:11;;;;;;;31.90;21.58;;;;;;;5.15;100.00;100989.34;5014839;28;20099;-90
2020/12/19 07:40:36;;;;;;;30.10;21.08;;;;;;;5.17;100.00;100997.19;5022503;28;20197;-88
2020/12/19 07:43:06;;;;;;;31.05;20.40;;;;;;;5.13;100.00;100985.94;5018372;28;20045;-88
2020/12/19 07:45:33;;;;;;;29.83;20.65;;;;;;;5.11;100.00;100977.22;5019189;28;20033;-85
2020/12/19 07:47:58;;;;;;;31.83;20.70;;;;;;;5.12;100.00;100986.94;5037086;28;20061;-86
2020/12/19 07:50:25;;;;;;;29.95;19.60;;;;;;;5.12;100.00;100978.94;5025710;28;20057;-86
2020/12/19 07:53:01;;;;;;;32.58;21.60;;;;;;;5.12;100.00;100983.41;5032703;28;20041;-85
2020/12/19 07:55:26;;;;;;;32.33;21.20;;;;;;;5.11;100.00;100993.19;5033801;28;20080;-85
2020/12/19 07:57:56;;;;;;;32.92;21.48;;;;;;;5.11;100.00;100990.53;5034132;28;20494;-86
2020/12/19 08:00:22;;;;;;;34.30;22.20;;;;;;;5.13;100.00;100991.28;5035892;28;20055;-88
2020/12/19 08:02:47;;;;;;;31.73;20.35;;;;;;;5.09;100.00;100994.28;5032364;28;20478;-88
2020/12/19 08:05:13;;;;;;;31.35;20.92;;;;;;;5.12;100.00;100994.91;5017398;28;20106;-86
2020/12/19 08:07:38;;;;;;;34.42;22.58;;;;;;;5.15;100.00;100989.34;5026259;28;20426;-85
2020/12/19 08:10:07;;;;;;;33.22;21.38;;;;;;;5.18;100.00;100988.25;5023212;28;20038;-85
2020/12/19 08:12:33;;;;;;;31.95;20.27;;;;;;;5.23;100.00;100982.53;5027796;28;20491;-86
2020/12/19 08:15:06;;;;;;;32.38;21.35;;;;;;;5.27;100.00;100987.50;5025260;28;20060;-85
2020/12/19 08:17:53;;;;;;;31.15;21.45;;;;;;;5.28;100.00;100983.00;5023254;28;20045;-86
2020/12/19 08:20:26;;;;;;;33.58;22.20;;;;;;;5.31;100.00;100977.44;5041587;28;20038;-84
2020/12/19 08:22:54;;;;;;;31.88;21.13;;;;;;;5.38;100.00;100978.59;4997568;28;20038;-85
2020/12/19 08:25:20;;;;;;;31.05;20.63;;;;;;;5.43;100.00;100979.91;5028419;28;20045;-86
2020/12/19 08:27:50;;;;;;;29.83;19.48;;;;;;;5.52;100.00;100978.31;5014667;28;20234;-87
2020/12/19 08:30:24;;;;;;;27.85;18.45;;;;;;;5.58;100.00;100977.84;5012760;28;20041;-86
2020/12/19 08:32:58;;;;;;;29.25;21.48;;;;;;;5.65;100.00;100971.00;5021515;28;20631;-88
2020/12/19 08:35:43;;;;;;;29.13;19.13;;;;;;;5.74;100.00;100982.72;5002618;28;20037;-85
2020/12/19 08:38:23;;;;;;;25.42;16.85;;;;;;;5.83;100.00;100973.94;5012854;28;20037;-86
2020/12/19 08:40:50;;;;;;;27.88;17.35;;;;;;;5.92;100.00;100969.66;4982551;28;20045;-87
2020/12/19 08:43:17;;;;;;;26.40;17.33;;;;;;;6.01;100.00;100978.72;5002917;28;20042;-86
2020/12/19 08:45:49;;;;;;;30.52;18.17;;;;;;;6.09;100.00;100974.44;4993202;28;20042;-87
2020/12/19 08:48:17;;;;;;;25.33;18.00;;;;;;;6.14;100.00;100965.22;5023130;28;20671;-89
2020/12/19 08:50:44;;;;;;;24.70;17.47;;;;;;;6.20;100.00;100967.34;5026714;28;20042;-86
2020/12/19 08:53:24;;;;;;;25.60;17.55;;;;;;;6.24;100.00;100960.75;5023984;28;20068;-87
2020/12/19 08:55:52;;;;;;;24.33;16.50;;;;;;;6.28;100.00;100962.22;4997701;28;20043;-85
2020/12/19 08:58:31;;;;;;;28.85;18.25;;;;;;;6.35;100.00;100962.50;5034719;28;20041;-84
2020/12/19 09:00:58;;;;;;;25.50;16.83;;;;;;;6.38;100.00;100957.75;5003456;28;20552;-85
2020/12/19 09:03:33;;;;;;;25.75;16.63;;;;;;;6.45;100.00;100953.59;5032629;28;20065;-85
2020/12/19 09:06:04;;;;;;;24.45;16.45;;;;;;;6.51;100.00;100973.53;5022322;28;20537;-86
2020/12/19 09:08:43;;;;;;;26.50;16.70;;;;;;;6.60;100.00;100977.22;5019908;28;20053;-88
2020/12/19 09:11:20;;;;;;;;;;;;;;;6.62;100.00;100978.78;5029825;28;20062;-83
2020/12/19 09:13:45;;;;;;;27.65;18.15;;;;;;;6.59;100.00;100972.84;4992020;28;20000;-86
2020/12/19 09:16:11;;;;;;;28.63;18.35;;;;;;;6.62;100.00;100965.47;5015796;28;20067;-88
2020/12/19 09:18:38;;;;;;;23.88;16.35;;;;;;;6.70;100.00;100975.44;5016082;28;20041;-86
2020/12/19 09:21:09;;;;;;;25.17;17.05;;;;;;;6.76;100.00;100974.88;5030330;28;20161;-84
2020/12/19 09:23:35;;;;;;;26.85;17.20;;;;;;;6.83;100.00;100980.56;5024237;28;20038;-84
2020/12/19 09:26:03;;;;;;;24.40;16.85;;;;;;;6.89;100.00;100972.00;5030126;28;20079;-84
2020/12/19 09:28:29;;;;;;;26.15;17.77;;;;;;;6.96;100.00;100968.66;5032117;28;20056;-85
2020/12/19 09:30:55;;;;;;;26.10;17.55;;;;;;;7.05;100.00;100964.31;5007397;28;20041;-85
2020/12/19 09:33:21;;;;;;;27.77;17.00;;;;;;;7.14;100.00;100970.66;5025483;28;20068;-86
2020/12/19 09:35:48;;;;;;;26.02;17.08;;;;;;;7.18;100.00;100966.72;5030476;28;20125;-86
2020/12/19 09:38:13;;;;;;;24.00;17.05;;;;;;;7.27;100.00;100971.22;5010786;28;20041;-86
2020/12/19 09:40:39;;;;;;;25.45;17.85;;;;;;;7.35;100.00;100963.38;5042439;28;20132;-86
2020/12/19 09:43:05;;;;;;;26.10;17.23;;;;;;;7.46;100.00;100965.91;5022319;28;20144;-83
2020/12/19 09:45:30;;;;;;;23.55;16.42;;;;;;;7.58;100.00;100971.13;5028322;28;20033;-87
2020/12/19 09:47:57;;;;;;;22.38;15.70;;;;;;;7.69;100.00;100973.66;5023979;28;20030;-86
2020/12/19 09:50:25;;;;;;;26.50;16.80;;;;;;;7.79;100.00;100965.63;5014911;28;20050;-87
2020/12/19 09:52:51;;;;;;;21.63;16.48;;;;;;;7.90;100.00;100976.16;5030739;28;20053;-85
2020/12/19 09:55:17;;;;;;;23.15;16.55;;;;;;;8.02;100.00;100971.50;5029286;28;20033;-87
2020/12/19 09:57:42;;;;;;;23.38;17.60;;;;;;;8.13;100.00;100971.34;5035730;28;20554;-86
2020/12/19 10:00:10;;;;;;;23.80;16.80;;;;;;;8.25;100.00;100969.34;5019978;28;20088;-85
2020/12/19 10:02:35;;;;;;;22.10;15.93;;;;;;;8.33;100.00;100970.31;5015114;28;20033;-85
2020/12/19 10:05:00;;;;;;;22.17;16.63;;;;;;;8.44;100.00;100968.50;5037246;28;20107;-87
2020/12/19 10:07:26;;;;;;;20.83;14.70;;;;;;;8.52;100.00;100963.25;5015486;28;20480;-84
2020/12/19 10:09:52;;;;;;;24.10;16.13;;;;;;;8.57;99.45;100960.97;5008963;28;20052;-86
2020/12/19 10:12:17;;;;;;;25.05;15.00;;;;;;;8.66;98.92;100954.75;5024656;28;20044;-86
2020/12/19 10:14:43;;;;;;;24.27;15.75;;;;;;;8.75;98.70;100955.69;5029605;28;20034;-87
2020/12/19 10:17:08;;;;;;;20.92;14.02;;;;;;;8.81;98.13;100955.94;5030168;28;20053;-88
2020/12/19 10:19:34;;;;;;;21.83;14.32;;;;;;;8.89;97.98;100951.66;5001110;28;20056;-84
2020/12/19 10:22:00;;;;;;;20.30;15.13;;;;;;;8.97;97.56;100943.72;5034338;28;20046;-85
2020/12/19 10:24:26;;;;;;;18.38;14.05;;;;;;;9.04;97.32;100947.50;5018792;28;20375;-87
2020/12/19 10:26:52;;;;;;;20.27;14.68;;;;;;;9.09;96.52;100939.88;5032075;28;20129;-89
2020/12/19 10:29:17;;;;;;;20.35;14.25;;;;;;;9.16;96.20;100943.59;5031953;28;20132;-86
2020/12/19 10:31:43;;;;;;;20.48;13.88;;;;;;;9.25;96.44;100937.34;5013294;28;20508;-85
2020/12/19 10:34:08;;;;;;;17.73;12.98;;;;;;;9.32;95.90;100929.56;5012023;28;20141;-85
2020/12/19 10:36:33;;;;;;;20.75;13.82;;;;;;;9.40;95.51;100929.59;5022028;28;20072;-87
2020/12/19 10:38:59;;;;;;;17.33;12.60;;;;;;;9.47;95.11;100928.00;5034457;28;20057;-85
2020/12/19 10:41:25;;;;;;;17.45;13.43;;;;;;;9.54;94.78;100919.34;5032776;28;20044;-86
2020/12/19 10:43:50;;;;;;;19.80;12.95;;;;;;;9.60;94.57;100919.56;5037569;28;20036;-85
2020/12/19 10:46:27;;;;;;;16.88;13.05;;;;;;;9.66;94.26;100926.16;5015113;28;20546;-85
2020/12/19 10:48:53;;;;;;;16.23;12.73;;;;;;;9.75;94.31;100927.06;5036805;28;20068;-83
2020/12/19 10:51:29;;;;;;;16.52;12.10;;;;;;;9.81;93.58;100921.06;5035687;28;20033;-90
2020/12/19 10:53:56;;;;;;;14.88;11.23;;;;;;;9.87;93.54;100923.16;5018679;28;20410;-88
2020/12/19 10:56:22;;;;;;;17.48;12.60;;;;;;;9.94;93.24;100906.25;5037332;28;20041;-85
2020/12/19 10:58:48;;;;;;;15.25;11.75;;;;;;;10.03;92.37;100904.47;5017491;28;20060;-86
2020/12/19 11:01:13;;;;;;;16.05;11.35;;;;;;;10.09;92.21;100895.78;5003989;28;20041;-87
2020/12/19 11:03:42;;;;;;;14.80;11.00;;;;;;;10.17;91.97;100898.53;5029690;28;20046;-86
2020/12/19 11:06:17;;;;;;;14.35;11.05;;;;;;;10.23;91.25;100889.00;5038183;28;20068;-85
2020/12/19 11:08:42;;;;;;;15.80;11.25;;;;;;;10.33;91.23;100883.56;5030001;28;20042;-91
2020/12/19 11:11:08;;;;;;;15.38;11.00;;;;;;;10.41;90.71;100888.94;4999996;28;20418;-87
2020/12/19 11:13:33;;;;;;;14.30;10.40;;;;;;;10.49;90.41;100880.94;5016003;28;20034;-85